sensor_id;sensor_type;location;lat;lon;timestamp;temperature;humidity
7796;DHT22;3942;51.518;6.912;2023-07-20T00:01:53;19.50;99.90
7796;DHT22;3942;51.518;6.912;2023-07-20T00:06:57;19.60;99.90
7796;DHT22;3942;51.518;6.912;2023-07-20T00:11:58;19.70;99.90
7796;DHT22;3942;51.518;6.912;2023-07-20T00:17:02;19.70;99.90
7796;DHT22;3942;51.518;6.912;2023-07-20T00:22:05;19.60;99.90
7796;DHT22;3942;51.518;6.912;2023-07-20T00:27:07;19.60;99.90
7796;DHT22;3942;51.518;6.912;2023-07-20T00:32:09;19.60;99.90
7796;DHT22;3942;51.518;6.912;2023-07-20T00:37:12;19.50;1.00
7796;DHT22;3942;51.518;6.912;2023-07-20T00:42:14;19.60;1.00
7796;DHT22;3942;51.518;6.912;2023-07-20T00:47:16;19.60;1.00
7796;DHT22;3942;51.518;6.912;2023-07-20T00:52:21;19.50;1.00
7796;DHT22;3942;51.518;6.912;2023-07-20T00:57:24;19.50;1.00
7796;DHT22;3942;51.518;6.912;2023-07-20T01:02:26;19.50;1.00
7796;DHT22;3942;51.518;6.912;2023-07-20T01:07:32;16.50;1.00
7796;DHT22;3942;51.518;6.912;2023-07-20T01:12:41;19.40;93.30
7796;DHT22;3942;51.518;6.912;2023-07-20T01:17:43;19.30;99.90
7796;DHT22;3942;51.518;6.912;2023-07-20T01:28:39;19.30;99.90
7796;DHT22;3942;51.518;6.912;2023-07-20T01:33:47;19.30;99.90
7796;DHT22;3942;51.518;6.912;2023-07-20T01:38:51;19.30;1.00
7796;DHT22;3942;51.518;6.912;2023-07-20T01:43:53;19.30;1.00
7796;DHT22;3942;51.518;6.912;2023-07-20T01:49:00;19.10;37.00
7796;DHT22;3942;51.518;6.912;2023-07-20T01:54:02;19.10;99.90
7796;DHT22;3942;51.518;6.912;2023-07-20T01:59:03;19.00;99.90
7796;DHT22;3942;51.518;6.912;2023-07-20T02:04:06;19.00;1.00
7796;DHT22;3942;51.518;6.912;2023-07-20T02:09:08;18.90;67.90
7796;DHT22;3942;51.518;6.912;2023-07-20T02:14:10;18.60;99.90
7796;DHT22;3942;51.518;6.912;2023-07-20T02:19:15;18.60;1.00
7796;DHT22;3942;51.518;6.912;2023-07-20T02:24:17;18.50;1.00
7796;DHT22;3942;51.518;6.912;2023-07-20T02:29:19;18.50;29.90
7796;DHT22;3942;51.518;6.912;2023-07-20T02:34:22;18.40;85.90
7796;DHT22;3942;51.518;6.912;2023-07-20T02:39:24;18.50;99.90
7796;DHT22;3942;51.518;6.912;2023-07-20T02:44:26;18.50;99.90
7796;DHT22;3942;51.518;6.912;2023-07-20T02:49:29;18.50;99.90
7796;DHT22;3942;51.518;6.912;2023-07-20T02:54:31;18.30;99.90
7796;DHT22;3942;51.518;6.912;2023-07-20T02:59:33;18.20;99.90
7796;DHT22;3942;51.518;6.912;2023-07-20T03:04:36;18.20;99.90
7796;DHT22;3942;51.518;6.912;2023-07-20T03:09:38;18.30;99.90
7796;DHT22;3942;51.518;6.912;2023-07-20T03:14:41;18.20;99.90
7796;DHT22;3942;51.518;6.912;2023-07-20T03:19:44;18.10;99.90
7796;DHT22;3942;51.518;6.912;2023-07-20T03:24:46;18.30;99.90
7796;DHT22;3942;51.518;6.912;2023-07-20T03:29:48;18.10;99.90
7796;DHT22;3942;51.518;6.912;2023-07-20T03:34:51;18.20;99.90
7796;DHT22;3942;51.518;6.912;2023-07-20T03:39:53;18.20;99.90
7796;DHT22;3942;51.518;6.912;2023-07-20T03:44:54;18.40;99.90
7796;DHT22;3942;51.518;6.912;2023-07-20T03:49:58;18.30;99.90
7796;DHT22;3942;51.518;6.912;2023-07-20T03:54:59;18.40;99.90
7796;DHT22;3942;51.518;6.912;2023-07-20T04:00:01;18.30;99.90
7796;DHT22;3942;51.518;6.912;2023-07-20T04:05:06;18.40;99.90
7796;DHT22;3942;51.518;6.912;2023-07-20T04:10:08;18.30;99.90
7796;DHT22;3942;51.518;6.912;2023-07-20T04:15:11;18.30;99.90
7796;DHT22;3942;51.518;6.912;2023-07-20T04:20:15;18.30;99.90
7796;DHT22;3942;51.518;6.912;2023-07-20T04:25:18;18.30;99.90
7796;DHT22;3942;51.518;6.912;2023-07-20T04:30:20;18.30;99.90
7796;DHT22;3942;51.518;6.912;2023-07-20T04:35:49;18.50;99.90
7796;DHT22;3942;51.518;6.912;2023-07-20T04:40:50;18.60;99.90
7796;DHT22;3942;51.518;6.912;2023-07-20T04:45:52;18.50;99.90
7796;DHT22;3942;51.518;6.912;2023-07-20T04:50:55;18.60;99.90
7796;DHT22;3942;51.518;6.912;2023-07-20T04:55:57;18.50;99.90
7796;DHT22;3942;51.518;6.912;2023-07-20T05:00:59;18.40;99.90
7796;DHT22;3942;51.518;6.912;2023-07-20T05:06:03;18.50;99.90
7796;DHT22;3942;51.518;6.912;2023-07-20T05:11:04;18.40;99.90
7796;DHT22;3942;51.518;6.912;2023-07-20T05:16:07;18.20;99.90
7796;DHT22;3942;51.518;6.912;2023-07-20T05:21:11;18.30;99.90
7796;DHT22;3942;51.518;6.912;2023-07-20T05:26:12;18.10;99.90
7796;DHT22;3942;51.518;6.912;2023-07-20T05:31:14;18.40;99.90
7796;DHT22;3942;51.518;6.912;2023-07-20T05:36:17;18.50;99.90
7796;DHT22;3942;51.518;6.912;2023-07-20T05:41:19;18.50;99.90
7796;DHT22;3942;51.518;6.912;2023-07-20T05:46:23;18.60;99.90
7796;DHT22;3942;51.518;6.912;2023-07-20T05:51:26;19.20;99.90
7796;DHT22;3942;51.518;6.912;2023-07-20T05:56:28;19.60;99.90
7796;DHT22;3942;51.518;6.912;2023-07-20T06:01:30;19.90;99.90
7796;DHT22;3942;51.518;6.912;2023-07-20T06:06:33;19.90;88.40
7796;DHT22;3942;51.518;6.912;2023-07-20T06:11:35;19.70;99.90
7796;DHT22;3942;51.518;6.912;2023-07-20T06:16:37;19.90;4.50
7796;DHT22;3942;51.518;6.912;2023-07-20T06:21:40;19.70;1.00
7796;DHT22;3942;51.518;6.912;2023-07-20T06:26:42;20.10;99.90
7796;DHT22;3942;51.518;6.912;2023-07-20T06:31:44;20.00;1.00
7796;DHT22;3942;51.518;6.912;2023-07-20T06:36:47;20.00;99.90
7796;DHT22;3942;51.518;6.912;2023-07-20T06:41:49;20.00;99.90
7796;DHT22;3942;51.518;6.912;2023-07-20T06:46:51;20.20;1.00
7796;DHT22;3942;51.518;6.912;2023-07-20T06:51:54;20.10;99.90
7796;DHT22;3942;51.518;6.912;2023-07-20T06:56:56;20.50;1.00
7796;DHT22;3942;51.518;6.912;2023-07-20T07:01:58;20.30;99.90
7796;DHT22;3942;51.518;6.912;2023-07-20T07:07:02;21.20;1.00
7796;DHT22;3942;51.518;6.912;2023-07-20T07:12:05;21.50;99.90
7796;DHT22;3942;51.518;6.912;2023-07-20T07:17:07;21.40;99.90
7796;DHT22;3942;51.518;6.912;2023-07-20T07:22:10;21.30;99.90
7796;DHT22;3942;51.518;6.912;2023-07-20T07:27:12;21.50;99.90
7796;DHT22;3942;51.518;6.912;2023-07-20T07:32:16;21.30;99.90
7796;DHT22;3942;51.518;6.912;2023-07-20T07:37:19;21.10;99.90
7796;DHT22;3942;51.518;6.912;2023-07-20T07:42:21;21.40;90.80
7796;DHT22;3942;51.518;6.912;2023-07-20T07:47:23;21.10;99.90
7796;DHT22;3942;51.518;6.912;2023-07-20T07:52:26;21.80;1.00
7796;DHT22;3942;51.518;6.912;2023-07-20T07:57:28;22.30;99.90
7796;DHT22;3942;51.518;6.912;2023-07-20T08:02:30;21.90;99.90
7796;DHT22;3942;51.518;6.912;2023-07-20T08:07:33;21.90;37.00
7796;DHT22;3942;51.518;6.912;2023-07-20T08:12:35;22.30;1.00
7796;DHT22;3942;51.518;6.912;2023-07-20T08:17:37;22.80;99.90
7796;DHT22;3942;51.518;6.912;2023-07-20T08:22:40;22.30;99.90
7796;DHT22;3942;51.518;6.912;2023-07-20T08:27:42;22.80;99.90
7796;DHT22;3942;51.518;6.912;2023-07-20T08:32:46;22.80;99.90
7796;DHT22;3942;51.518;6.912;2023-07-20T08:37:49;23.30;47.70
7796;DHT22;3942;51.518;6.912;2023-07-20T08:42:53;23.60;1.00
7796;DHT22;3942;51.518;6.912;2023-07-20T08:47:56;23.80;1.00
7796;DHT22;3942;51.518;6.912;2023-07-20T08:53:01;23.70;1.00
7796;DHT22;3942;51.518;6.912;2023-07-20T08:58:05;23.90;1.00
7796;DHT22;3942;51.518;6.912;2023-07-20T09:03:10;24.00;1.00
7796;DHT22;3942;51.518;6.912;2023-07-20T09:08:14;24.10;99.90
7796;DHT22;3942;51.518;6.912;2023-07-20T09:13:16;24.00;99.90
7796;DHT22;3942;51.518;6.912;2023-07-20T09:18:24;23.50;99.90
7796;DHT22;3942;51.518;6.912;2023-07-20T09:23:32;23.60;99.90
7796;DHT22;3942;51.518;6.912;2023-07-20T09:28:41;23.80;99.90
7796;DHT22;3942;51.518;6.912;2023-07-20T09:33:44;23.70;99.90
7796;DHT22;3942;51.518;6.912;2023-07-20T09:38:47;23.60;99.90
7796;DHT22;3942;51.518;6.912;2023-07-20T09:43:49;23.90;99.90
7796;DHT22;3942;51.518;6.912;2023-07-20T09:48:52;23.70;99.90
7796;DHT22;3942;51.518;6.912;2023-07-20T09:53:56;24.30;99.90
7796;DHT22;3942;51.518;6.912;2023-07-20T09:58:58;24.50;99.90
7796;DHT22;3942;51.518;6.912;2023-07-20T10:04:03;24.50;99.90
7796;DHT22;3942;51.518;6.912;2023-07-20T10:09:07;24.40;99.90
7796;DHT22;3942;51.518;6.912;2023-07-20T10:14:12;24.50;99.90
7796;DHT22;3942;51.518;6.912;2023-07-20T10:19:22;24.50;99.90
7796;DHT22;3942;51.518;6.912;2023-07-20T10:24:28;24.50;99.90
7796;DHT22;3942;51.518;6.912;2023-07-20T10:29:30;24.80;99.90
7796;DHT22;3942;51.518;6.912;2023-07-20T10:34:34;24.30;99.90
7796;DHT22;3942;51.518;6.912;2023-07-20T10:39:38;24.30;99.90
7796;DHT22;3942;51.518;6.912;2023-07-20T10:44:41;24.60;99.90
7796;DHT22;3942;51.518;6.912;2023-07-20T10:49:58;24.50;99.90
7796;DHT22;3942;51.518;6.912;2023-07-20T10:55:14;24.80;99.90
7796;DHT22;3942;51.518;6.912;2023-07-20T11:00:19;24.70;99.90
7796;DHT22;3942;51.518;6.912;2023-07-20T11:05:36;24.50;99.90
7796;DHT22;3942;51.518;6.912;2023-07-20T11:10:39;24.50;99.90
7796;DHT22;3942;51.518;6.912;2023-07-20T11:15:45;24.70;99.90
7796;DHT22;3942;51.518;6.912;2023-07-20T11:20:50;24.80;99.90
7796;DHT22;3942;51.518;6.912;2023-07-20T11:25:53;24.90;99.90
7796;DHT22;3942;51.518;6.912;2023-07-20T11:30:55;24.50;99.90
7796;DHT22;3942;51.518;6.912;2023-07-20T11:35:57;24.50;99.90
7796;DHT22;3942;51.518;6.912;2023-07-20T11:41:02;24.70;99.90
7796;DHT22;3942;51.518;6.912;2023-07-20T11:46:05;24.50;99.90
7796;DHT22;3942;51.518;6.912;2023-07-20T11:51:13;24.70;99.90
7796;DHT22;3942;51.518;6.912;2023-07-20T11:56:16;23.90;99.90
7796;DHT22;3942;51.518;6.912;2023-07-20T12:01:19;24.20;99.90
7796;DHT22;3942;51.518;6.912;2023-07-20T12:06:23;24.70;99.90
7796;DHT22;3942;51.518;6.912;2023-07-20T12:11:33;24.70;99.90
7796;DHT22;3942;51.518;6.912;2023-07-20T12:16:36;24.60;99.90
7796;DHT22;3942;51.518;6.912;2023-07-20T12:21:39;24.80;99.90
7796;DHT22;3942;51.518;6.912;2023-07-20T12:26:43;25.10;99.90
7796;DHT22;3942;51.518;6.912;2023-07-20T12:31:45;24.80;99.90
7796;DHT22;3942;51.518;6.912;2023-07-20T12:36:47;24.70;99.90
7796;DHT22;3942;51.518;6.912;2023-07-20T12:41:50;24.80;99.90
7796;DHT22;3942;51.518;6.912;2023-07-20T12:46:52;24.50;99.90
7796;DHT22;3942;51.518;6.912;2023-07-20T12:51:54;24.70;99.90
7796;DHT22;3942;51.518;6.912;2023-07-20T12:56:57;24.60;99.90
7796;DHT22;3942;51.518;6.912;2023-07-20T13:01:59;24.50;99.90
7796;DHT22;3942;51.518;6.912;2023-07-20T13:07:01;24.80;99.90
7796;DHT22;3942;51.518;6.912;2023-07-20T13:12:05;24.70;99.90
7796;DHT22;3942;51.518;6.912;2023-07-20T13:17:07;24.90;99.90
7796;DHT22;3942;51.518;6.912;2023-07-20T13:22:10;24.80;99.90
7796;DHT22;3942;51.518;6.912;2023-07-20T13:27:14;24.70;99.90
7796;DHT22;3942;51.518;6.912;2023-07-20T13:32:16;24.60;99.90
7796;DHT22;3942;51.518;6.912;2023-07-20T13:37:18;24.70;99.90
7796;DHT22;3942;51.518;6.912;2023-07-20T13:42:22;24.80;99.90
7796;DHT22;3942;51.518;6.912;2023-07-20T13:47:23;24.70;99.90
7796;DHT22;3942;51.518;6.912;2023-07-20T13:52:25;24.70;99.90
7796;DHT22;3942;51.518;6.912;2023-07-20T13:57:28;24.40;99.90
7796;DHT22;3942;51.518;6.912;2023-07-20T14:02:30;24.70;99.90
7796;DHT22;3942;51.518;6.912;2023-07-20T14:07:32;24.80;99.90
7796;DHT22;3942;51.518;6.912;2023-07-20T14:12:35;24.70;99.90
7796;DHT22;3942;51.518;6.912;2023-07-20T14:17:37;24.70;99.90
7796;DHT22;3942;51.518;6.912;2023-07-20T14:22:39;24.60;99.90
7796;DHT22;3942;51.518;6.912;2023-07-20T14:27:43;24.50;99.90
7796;DHT22;3942;51.518;6.912;2023-07-20T14:32:45;24.60;99.90
7796;DHT22;3942;51.518;6.912;2023-07-20T14:37:47;24.80;99.90
7796;DHT22;3942;51.518;6.912;2023-07-20T14:42:52;24.70;99.90
7796;DHT22;3942;51.518;6.912;2023-07-20T14:47:53;24.50;99.90
7796;DHT22;3942;51.518;6.912;2023-07-20T14:52:55;24.80;99.90
7796;DHT22;3942;51.518;6.912;2023-07-20T14:57:59;24.90;99.90
7796;DHT22;3942;51.518;6.912;2023-07-20T15:03:00;24.70;99.90
7796;DHT22;3942;51.518;6.912;2023-07-20T15:08:02;24.70;99.90
7796;DHT22;3942;51.518;6.912;2023-07-20T15:13:06;24.70;99.90
7796;DHT22;3942;51.518;6.912;2023-07-20T15:18:08;24.70;99.90
7796;DHT22;3942;51.518;6.912;2023-07-20T15:23:09;24.50;99.90
7796;DHT22;3942;51.518;6.912;2023-07-20T15:28:13;24.70;99.90
7796;DHT22;3942;51.518;6.912;2023-07-20T15:33:16;24.80;99.90
7796;DHT22;3942;51.518;6.912;2023-07-20T15:38:17;24.80;99.90
7796;DHT22;3942;51.518;6.912;2023-07-20T15:43:21;24.40;99.90
7796;DHT22;3942;51.518;6.912;2023-07-20T15:48:23;24.40;99.90
7796;DHT22;3942;51.518;6.912;2023-07-20T15:53:25;24.20;99.90
7796;DHT22;3942;51.518;6.912;2023-07-20T15:58:28;24.50;99.90
7796;DHT22;3942;51.518;6.912;2023-07-20T16:03:30;24.70;99.90
7796;DHT22;3942;51.518;6.912;2023-07-20T16:08:32;24.70;99.90
7796;DHT22;3942;51.518;6.912;2023-07-20T16:13:35;24.60;99.90
7796;DHT22;3942;51.518;6.912;2023-07-20T16:18:37;24.60;99.90
7796;DHT22;3942;51.518;6.912;2023-07-20T16:23:38;24.70;99.90
7796;DHT22;3942;51.518;6.912;2023-07-20T16:28:42;24.60;99.90
7796;DHT22;3942;51.518;6.912;2023-07-20T16:33:45;24.50;99.90
7796;DHT22;3942;51.518;6.912;2023-07-20T16:38:48;24.40;99.90
7796;DHT22;3942;51.518;6.912;2023-07-20T16:43:51;24.60;99.90
7796;DHT22;3942;51.518;6.912;2023-07-20T16:48:53;24.40;99.90
7796;DHT22;3942;51.518;6.912;2023-07-20T16:53:55;24.30;99.90
7796;DHT22;3942;51.518;6.912;2023-07-20T16:58:58;24.30;99.90
7796;DHT22;3942;51.518;6.912;2023-07-20T17:04:01;24.00;99.90
7796;DHT22;3942;51.518;6.912;2023-07-20T17:09:03;24.30;99.90
7796;DHT22;3942;51.518;6.912;2023-07-20T17:14:07;24.20;99.90
7796;DHT22;3942;51.518;6.912;2023-07-20T17:19:09;24.00;99.90
7796;DHT22;3942;51.518;6.912;2023-07-20T17:24:11;24.00;99.90
7796;DHT22;3942;51.518;6.912;2023-07-20T17:29:14;23.60;99.90
7796;DHT22;3942;51.518;6.912;2023-07-20T17:34:16;23.20;99.90
7796;DHT22;3942;51.518;6.912;2023-07-20T17:39:18;23.30;99.90
7796;DHT22;3942;51.518;6.912;2023-07-20T17:44:21;23.50;99.90
7796;DHT22;3942;51.518;6.912;2023-07-20T17:49:23;23.50;99.90
7796;DHT22;3942;51.518;6.912;2023-07-20T17:54:25;23.50;99.90
7796;DHT22;3942;51.518;6.912;2023-07-20T17:59:29;23.50;99.90
7796;DHT22;3942;51.518;6.912;2023-07-20T18:04:31;23.30;99.90
7796;DHT22;3942;51.518;6.912;2023-07-20T18:09:33;23.50;99.90
7796;DHT22;3942;51.518;6.912;2023-07-20T18:14:36;23.30;99.90
7796;DHT22;3942;51.518;6.912;2023-07-20T18:19:38;23.30;99.90
7796;DHT22;3942;51.518;6.912;2023-07-20T18:24:40;23.30;99.90
7796;DHT22;3942;51.518;6.912;2023-07-20T18:29:43;23.40;99.90
7796;DHT22;3942;51.518;6.912;2023-07-20T18:34:45;23.30;99.90
7796;DHT22;3942;51.518;6.912;2023-07-20T18:39:47;23.20;99.90
7796;DHT22;3942;51.518;6.912;2023-07-20T18:44:51;23.30;99.90
7796;DHT22;3942;51.518;6.912;2023-07-20T18:49:52;23.00;99.90
7796;DHT22;3942;51.518;6.912;2023-07-20T18:54:57;23.00;99.90
7796;DHT22;3942;51.518;6.912;2023-07-20T19:00:02;22.90;99.90
7796;DHT22;3942;51.518;6.912;2023-07-20T19:05:06;22.90;99.90
7796;DHT22;3942;51.518;6.912;2023-07-20T19:10:09;22.80;99.90
7796;DHT22;3942;51.518;6.912;2023-07-20T19:15:15;22.80;99.90
7796;DHT22;3942;51.518;6.912;2023-07-20T19:20:17;22.70;99.90
7796;DHT22;3942;51.518;6.912;2023-07-20T19:25:20;22.80;99.90
7796;DHT22;3942;51.518;6.912;2023-07-20T19:30:24;22.60;99.90
7796;DHT22;3942;51.518;6.912;2023-07-20T19:35:27;22.70;99.90
7796;DHT22;3942;51.518;6.912;2023-07-20T19:40:34;22.60;99.90
7796;DHT22;3942;51.518;6.912;2023-07-20T19:45:37;22.60;99.90
7796;DHT22;3942;51.518;6.912;2023-07-20T19:50:39;22.60;99.90
7796;DHT22;3942;51.518;6.912;2023-07-20T19:55:41;22.50;99.90
7796;DHT22;3942;51.518;6.912;2023-07-20T20:00:44;22.50;99.90
7796;DHT22;3942;51.518;6.912;2023-07-20T20:05:46;22.50;99.90
7796;DHT22;3942;51.518;6.912;2023-07-20T20:10:47;22.30;99.90
7796;DHT22;3942;51.518;6.912;2023-07-20T20:15:51;22.40;99.90
7796;DHT22;3942;51.518;6.912;2023-07-20T20:20:53;22.30;99.90
7796;DHT22;3942;51.518;6.912;2023-07-20T20:25:54;22.10;99.90
7796;DHT22;3942;51.518;6.912;2023-07-20T20:30:58;22.20;99.90
7796;DHT22;3942;51.518;6.912;2023-07-20T20:36:01;22.00;99.90
7796;DHT22;3942;51.518;6.912;2023-07-20T20:41:05;22.00;99.90
7796;DHT22;3942;51.518;6.912;2023-07-20T20:46:09;22.10;99.90
7796;DHT22;3942;51.518;6.912;2023-07-20T20:51:13;22.10;99.90
7796;DHT22;3942;51.518;6.912;2023-07-20T20:56:15;22.10;99.90
7796;DHT22;3942;51.518;6.912;2023-07-20T21:01:20;22.00;99.90
7796;DHT22;3942;51.518;6.912;2023-07-20T21:06:22;21.80;99.90
7796;DHT22;3942;51.518;6.912;2023-07-20T21:11:24;21.70;99.90
7796;DHT22;3942;51.518;6.912;2023-07-20T21:16:27;21.40;99.90
7796;DHT22;3942;51.518;6.912;2023-07-20T21:21:29;21.30;1.00
7796;DHT22;3942;51.518;6.912;2023-07-20T21:26:31;21.30;1.00
7796;DHT22;3942;51.518;6.912;2023-07-20T21:31:34;21.30;1.00
7796;DHT22;3942;51.518;6.912;2023-07-20T21:36:36;20.70;99.90
7796;DHT22;3942;51.518;6.912;2023-07-20T21:41:38;20.40;99.90
7796;DHT22;3942;51.518;6.912;2023-07-20T21:46:41;19.80;1.00
7796;DHT22;3942;51.518;6.912;2023-07-20T21:51:43;19.20;99.90
7796;DHT22;3942;51.518;6.912;2023-07-20T21:56:45;18.90;1.00
7796;DHT22;3942;51.518;6.912;2023-07-20T22:01:48;19.50;1.00
7796;DHT22;3942;51.518;6.912;2023-07-20T22:06:50;19.60;99.90
7796;DHT22;3942;51.518;6.912;2023-07-20T22:11:51;19.20;99.90
7796;DHT22;3942;51.518;6.912;2023-07-20T22:16:54;19.00;1.00
7796;DHT22;3942;51.518;6.912;2023-07-20T22:21:56;18.60;99.90
7796;DHT22;3942;51.518;6.912;2023-07-20T22:26:59;18.80;1.00
7796;DHT22;3942;51.518;6.912;2023-07-20T22:32:04;18.90;1.00
7796;DHT22;3942;51.518;6.912;2023-07-20T22:37:06;19.30;1.00
7796;DHT22;3942;51.518;6.912;2023-07-20T22:42:08;19.60;99.90
7796;DHT22;3942;51.518;6.912;2023-07-20T22:47:11;19.20;1.00
7796;DHT22;3942;51.518;6.912;2023-07-20T22:52:13;19.00;99.90
7796;DHT22;3942;51.518;6.912;2023-07-20T22:57:15;19.00;1.00
7796;DHT22;3942;51.518;6.912;2023-07-20T23:02:18;19.50;99.90
7796;DHT22;3942;51.518;6.912;2023-07-20T23:07:20;19.50;99.90
7796;DHT22;3942;51.518;6.912;2023-07-20T23:12:22;19.60;99.90
7796;DHT22;3942;51.518;6.912;2023-07-20T23:17:25;19.60;99.90
7796;DHT22;3942;51.518;6.912;2023-07-20T23:22:27;19.80;99.90
7796;DHT22;3942;51.518;6.912;2023-07-20T23:27:29;19.70;1.00
7796;DHT22;3942;51.518;6.912;2023-07-20T23:32:32;19.70;1.00
7796;DHT22;3942;51.518;6.912;2023-07-20T23:37:33;19.60;99.90
7796;DHT22;3942;51.518;6.912;2023-07-20T23:42:35;19.60;99.90
7796;DHT22;3942;51.518;6.912;2023-07-20T23:47:38;19.50;99.90
7796;DHT22;3942;51.518;6.912;2023-07-20T23:52:40;19.50;99.90
7796;DHT22;3942;51.518;6.912;2023-07-20T23:57:43;19.50;1.00
